sensor_id;sensor_type;location;lat;lon;timestamp;pressure;altitude;pressure_sealevel;temperature;humidity
18022;BME280;9136;48.822;7.966;2023-07-09T01:04:09;100457.50;;;20.45;100.00
18022;BME280;9136;48.822;7.966;2023-07-09T01:07:12;100457.44;;;20.46;100.00
18022;BME280;9136;48.822;7.966;2023-07-09T01:10:19;100483.88;;;20.62;100.00
18022;BME280;9136;48.822;7.966;2023-07-09T01:13:13;100491.56;;;20.67;100.00
18022;BME280;9136;48.822;7.966;2023-07-09T01:16:18;100454.50;;;20.37;100.00
18022;BME280;9136;48.822;7.966;2023-07-09T01:19:59;100472.78;;;20.43;100.00
18022;BME280;9136;48.822;7.966;2023-07-09T01:26:51;100461.63;;;20.36;100.00
18022;BME280;9136;48.822;7.966;2023-07-09T01:31:35;100483.88;;;20.49;100.00
18022;BME280;9136;48.822;7.966;2023-07-09T01:34:10;100487.28;;;20.39;100.00
18022;BME280;9136;48.822;7.966;2023-07-09T01:38:03;100468.03;;;20.21;100.00
18022;BME280;9136;48.822;7.966;2023-07-09T01:41:16;100471.44;;;20.23;100.00
18022;BME280;9136;48.822;7.966;2023-07-09T01:44:23;100465.25;;;20.10;100.00
18022;BME280;9136;48.822;7.966;2023-07-09T01:51:01;100469.53;;;20.12;100.00
18022;BME280;9136;48.822;7.966;2023-07-09T01:54:16;100487.25;;;20.26;100.00
18022;BME280;9136;48.822;7.966;2023-07-09T01:57:22;100469.97;;;20.19;100.00
18022;BME280;9136;48.822;7.966;2023-07-09T02:01:14;100488.75;;;20.17;100.00
18022;BME280;9136;48.822;7.966;2023-07-09T02:04:45;100471.00;;;20.04;100.00
18022;BME280;9136;48.822;7.966;2023-07-09T02:08:07;100475.69;;;20.00;100.00
18022;BME280;9136;48.822;7.966;2023-07-09T02:14:38;100484.00;;;19.95;100.00
18022;BME280;9136;48.822;7.966;2023-07-09T02:18:16;100496.69;;;19.92;100.00
18022;BME280;9136;48.822;7.966;2023-07-09T02:21:12;100486.75;;;19.81;100.00
18022;BME280;9136;48.822;7.966;2023-07-09T02:24:29;100501.28;;;19.90;100.00
18022;BME280;9136;48.822;7.966;2023-07-09T02:28:00;100487.25;;;19.73;100.00
18022;BME280;9136;48.822;7.966;2023-07-09T02:31:05;100498.78;;;19.74;100.00
18022;BME280;9136;48.822;7.966;2023-07-09T02:34:17;100481.50;;;19.53;100.00
18022;BME280;9136;48.822;7.966;2023-07-09T02:37:54;100482.31;;;19.40;100.00
18022;BME280;9136;48.822;7.966;2023-07-09T02:41:03;100507.84;;;19.30;100.00
18022;BME280;9136;48.822;7.966;2023-07-09T02:43:55;100486.16;;;19.22;100.00
18022;BME280;9136;48.822;7.966;2023-07-09T02:47:23;100470.31;;;19.06;100.00
18022;BME280;9136;48.822;7.966;2023-07-09T02:50:23;100476.09;;;19.13;100.00
18022;BME280;9136;48.822;7.966;2023-07-09T02:53:14;100498.59;;;19.36;100.00
18022;BME280;9136;48.822;7.966;2023-07-09T02:56:13;100485.06;;;19.12;100.00
18022;BME280;9136;48.822;7.966;2023-07-09T02:59:08;100484.19;;;19.11;100.00
18022;BME280;9136;48.822;7.966;2023-07-09T03:02:08;100482.56;;;19.09;100.00
18022;BME280;9136;48.822;7.966;2023-07-09T03:04:59;100490.28;;;19.13;100.00
18022;BME280;9136;48.822;7.966;2023-07-09T03:08:06;100488.94;;;19.06;100.00
18022;BME280;9136;48.822;7.966;2023-07-09T03:11:10;100488.28;;;19.03;100.00
18022;BME280;9136;48.822;7.966;2023-07-09T03:14:01;100507.97;;;19.14;100.00
18022;BME280;9136;48.822;7.966;2023-07-09T03:16:59;100497.41;;;18.99;100.00
18022;BME280;9136;48.822;7.966;2023-07-09T03:19:59;100528.69;;;19.09;100.00
18022;BME280;9136;48.822;7.966;2023-07-09T03:22:50;100484.56;;;18.91;100.00
18022;BME280;9136;48.822;7.966;2023-07-09T03:25:51;100502.47;;;18.89;100.00
18022;BME280;9136;48.822;7.966;2023-07-09T03:28:48;100522.91;;;18.88;100.00
18022;BME280;9136;48.822;7.966;2023-07-09T03:31:38;100495.41;;;18.59;100.00
18022;BME280;9136;48.822;7.966;2023-07-09T03:34:30;100496.66;;;18.54;100.00
18022;BME280;9136;48.822;7.966;2023-07-09T03:37:27;100510.91;;;18.53;100.00
18022;BME280;9136;48.822;7.966;2023-07-09T03:40:40;100522.97;;;18.58;100.00
18022;BME280;9136;48.822;7.966;2023-07-09T03:43:54;100558.84;;;18.67;100.00
18022;BME280;9136;48.822;7.966;2023-07-09T03:47:07;100534.97;;;18.66;100.00
18022;BME280;9136;48.822;7.966;2023-07-09T03:50:34;100529.66;;;18.66;100.00
18022;BME280;9136;48.822;7.966;2023-07-09T03:54:00;100552.66;;;18.81;100.00
18022;BME280;9136;48.822;7.966;2023-07-09T03:57:01;100543.34;;;18.88;100.00
18022;BME280;9136;48.822;7.966;2023-07-09T04:03:29;100536.03;;;18.77;100.00
18022;BME280;9136;48.822;7.966;2023-07-09T04:06:28;100547.34;;;18.81;100.00
18022;BME280;9136;48.822;7.966;2023-07-09T04:09:20;100534.97;;;18.80;100.00
18022;BME280;9136;48.822;7.966;2023-07-09T04:12:25;100537.06;;;18.89;100.00
18022;BME280;9136;48.822;7.966;2023-07-09T04:15:18;100551.72;;;18.96;100.00
18022;BME280;9136;48.822;7.966;2023-07-09T04:18:29;100549.06;;;18.96;100.00
18022;BME280;9136;48.822;7.966;2023-07-09T04:22:05;100543.34;;;19.02;100.00
18022;BME280;9136;48.822;7.966;2023-07-09T04:25:06;100549.72;;;19.00;100.00
18022;BME280;9136;48.822;7.966;2023-07-09T04:31:26;100567.88;;;19.22;100.00
18022;BME280;9136;48.822;7.966;2023-07-09T04:45:41;100569.00;;;19.32;100.00
18022;BME280;9136;48.822;7.966;2023-07-09T04:48:56;100563.59;;;19.33;100.00
18022;BME280;9136;48.822;7.966;2023-07-09T04:52:26;100562.53;;;19.36;100.00
18022;BME280;9136;48.822;7.966;2023-07-09T04:56:10;100573.25;;;19.49;100.00
18022;BME280;9136;48.822;7.966;2023-07-09T05:07:31;100584.38;;;19.69;100.00
18022;BME280;9136;48.822;7.966;2023-07-09T05:34:57;100579.97;;;20.49;100.00
18022;BME280;9136;48.822;7.966;2023-07-09T06:18:06;100590.03;;;22.19;100.00
18022;BME280;9136;48.822;7.966;2023-07-09T06:24:44;100592.97;;;22.51;100.00
18022;BME280;9136;48.822;7.966;2023-07-09T06:27:34;100576.06;;;22.51;100.00
18022;BME280;9136;48.822;7.966;2023-07-09T06:30:23;100569.72;;;22.52;100.00
18022;BME280;9136;48.822;7.966;2023-07-09T06:33:14;100593.59;;;22.66;100.00
18022;BME280;9136;48.822;7.966;2023-07-09T06:36:05;100576.94;;;22.63;100.00
18022;BME280;9136;48.822;7.966;2023-07-09T06:38:53;100573.53;;;22.61;100.00
18022;BME280;9136;48.822;7.966;2023-07-09T06:46:04;100571.28;;;22.90;100.00
18022;BME280;9136;48.822;7.966;2023-07-09T06:49:16;100581.53;;;23.18;100.00
18022;BME280;9136;48.822;7.966;2023-07-09T06:52:50;100579.41;;;23.44;100.00
18022;BME280;9136;48.822;7.966;2023-07-09T15:38:45;100295.25;;;31.89;35.86
18022;BME280;9136;48.822;7.966;2023-07-09T15:41:31;100314.38;;;32.10;37.58
18022;BME280;9136;48.822;7.966;2023-07-09T15:44:18;100306.88;;;32.12;36.42
18022;BME280;9136;48.822;7.966;2023-07-09T15:47:04;100296.00;;;32.12;36.94
18022;BME280;9136;48.822;7.966;2023-07-09T15:49:53;100292.34;;;32.20;36.26
18022;BME280;9136;48.822;7.966;2023-07-09T15:52:39;100296.63;;;32.59;34.86
18022;BME280;9136;48.822;7.966;2023-07-09T15:55:27;100289.56;;;33.00;35.44
18022;BME280;9136;48.822;7.966;2023-07-09T15:57:55;100282.69;;;33.26;35.03
18022;BME280;9136;48.822;7.966;2023-07-09T16:00:25;100289.78;;;33.42;34.89
18022;BME280;9136;48.822;7.966;2023-07-09T16:02:54;100291.63;;;33.63;34.44
18022;BME280;9136;48.822;7.966;2023-07-09T16:05:26;100272.34;;;33.92;33.57
18022;BME280;9136;48.822;7.966;2023-07-09T16:08:13;100268.88;;;34.46;39.47
18022;BME280;9136;48.822;7.966;2023-07-09T16:11:00;100261.22;;;34.89;39.40
18022;BME280;9136;48.822;7.966;2023-07-09T16:13:49;100270.09;;;35.24;33.68
18022;BME280;9136;48.822;7.966;2023-07-09T16:16:37;100264.41;;;35.72;30.48
18022;BME280;9136;48.822;7.966;2023-07-09T16:19:24;100265.88;;;36.46;28.38
18022;BME280;9136;48.822;7.966;2023-07-09T16:22:13;100258.94;;;36.88;29.54
18022;BME280;9136;48.822;7.966;2023-07-09T16:25:00;100256.81;;;37.90;29.48
18022;BME280;9136;48.822;7.966;2023-07-09T16:27:49;100259.72;;;38.32;29.94
18022;BME280;9136;48.822;7.966;2023-07-09T16:30:35;100272.25;;;38.58;27.98
18022;BME280;9136;48.822;7.966;2023-07-09T16:33:21;100263.06;;;38.16;28.49
18022;BME280;9136;48.822;7.966;2023-07-09T16:36:11;100262.94;;;37.42;28.40
18022;BME280;9136;48.822;7.966;2023-07-09T16:38:58;100258.63;;;36.20;29.01
18022;BME280;9136;48.822;7.966;2023-07-09T16:41:45;100248.88;;;35.26;30.10
18022;BME280;9136;48.822;7.966;2023-07-09T16:44:33;100261.25;;;35.03;29.84
18022;BME280;9136;48.822;7.966;2023-07-09T16:47:20;100249.63;;;34.67;31.51
18022;BME280;9136;48.822;7.966;2023-07-09T16:50:08;100263.06;;;34.82;31.23
18022;BME280;9136;48.822;7.966;2023-07-09T16:52:56;100265.81;;;34.82;33.06
18022;BME280;9136;48.822;7.966;2023-07-09T16:55:43;100243.75;;;34.84;31.36
18022;BME280;9136;48.822;7.966;2023-07-09T16:58:32;100257.38;;;34.70;32.50
18022;BME280;9136;48.822;7.966;2023-07-09T17:01:21;100250.84;;;34.58;32.20
18022;BME280;9136;48.822;7.966;2023-07-09T17:04:22;100253.63;;;34.65;32.42
18022;BME280;9136;48.822;7.966;2023-07-09T17:07:08;100254.22;;;34.73;32.47
18022;BME280;9136;48.822;7.966;2023-07-09T17:09:55;100248.78;;;34.80;32.89
18022;BME280;9136;48.822;7.966;2023-07-09T17:12:43;100244.44;;;34.99;32.07
18022;BME280;9136;48.822;7.966;2023-07-09T17:15:31;100225.31;;;35.32;32.33
18022;BME280;9136;48.822;7.966;2023-07-09T17:18:27;100234.81;;;35.43;31.56
18022;BME280;9136;48.822;7.966;2023-07-09T17:21:14;100230.09;;;34.84;31.78
18022;BME280;9136;48.822;7.966;2023-07-09T17:24:00;100228.03;;;34.92;31.97
18022;BME280;9136;48.822;7.966;2023-07-09T17:26:27;100228.25;;;35.31;34.47
18022;BME280;9136;48.822;7.966;2023-07-09T17:28:55;100224.66;;;35.70;34.20
18022;BME280;9136;48.822;7.966;2023-07-09T17:31:22;100229.06;;;35.77;32.47
18022;BME280;9136;48.822;7.966;2023-07-09T17:33:52;100227.66;;;35.62;31.20
18022;BME280;9136;48.822;7.966;2023-07-09T17:36:38;100224.88;;;35.68;31.63
18022;BME280;9136;48.822;7.966;2023-07-09T17:39:16;100212.03;;;35.75;32.46
18022;BME280;9136;48.822;7.966;2023-07-09T17:42:03;100213.47;;;35.98;31.14
18022;BME280;9136;48.822;7.966;2023-07-09T17:44:49;100221.31;;;36.32;31.72
18022;BME280;9136;48.822;7.966;2023-07-09T17:47:35;100221.00;;;36.54;32.53
18022;BME280;9136;48.822;7.966;2023-07-09T17:50:24;100219.28;;;36.21;34.37
18022;BME280;9136;48.822;7.966;2023-07-09T17:52:53;100206.22;;;36.17;34.61
18022;BME280;9136;48.822;7.966;2023-07-09T17:55:39;100218.56;;;35.81;35.11
18022;BME280;9136;48.822;7.966;2023-07-09T17:58:28;100224.25;;;35.60;35.96
18022;BME280;9136;48.822;7.966;2023-07-09T18:01:15;100230.22;;;34.42;39.76
18022;BME280;9136;48.822;7.966;2023-07-09T18:04:01;100219.66;;;33.50;41.25
18022;BME280;9136;48.822;7.966;2023-07-09T18:06:50;100214.50;;;32.85;43.31
18022;BME280;9136;48.822;7.966;2023-07-09T18:09:37;100210.78;;;32.20;44.61
18022;BME280;9136;48.822;7.966;2023-07-09T18:12:25;100205.88;;;31.94;44.90
18022;BME280;9136;48.822;7.966;2023-07-09T18:15:18;100218.97;;;31.61;47.04
18022;BME280;9136;48.822;7.966;2023-07-09T18:18:06;100222.81;;;31.52;47.41
18022;BME280;9136;48.822;7.966;2023-07-09T18:20:53;100221.31;;;31.64;47.21
18022;BME280;9136;48.822;7.966;2023-07-09T18:23:40;100234.31;;;32.13;45.29
18022;BME280;9136;48.822;7.966;2023-07-09T18:26:27;100216.72;;;32.60;42.95
18022;BME280;9136;48.822;7.966;2023-07-09T18:29:27;100224.50;;;32.63;44.03
18022;BME280;9136;48.822;7.966;2023-07-09T18:32:18;100238.09;;;32.63;44.77
18022;BME280;9136;48.822;7.966;2023-07-09T18:35:16;100220.34;;;32.67;47.32
18022;BME280;9136;48.822;7.966;2023-07-09T18:38:07;100221.41;;;32.66;50.37
18022;BME280;9136;48.822;7.966;2023-07-09T18:40:54;100199.66;;;32.51;54.28
18022;BME280;9136;48.822;7.966;2023-07-09T18:43:40;100207.00;;;32.51;53.76
18022;BME280;9136;48.822;7.966;2023-07-09T18:46:28;100213.88;;;32.68;51.16
18022;BME280;9136;48.822;7.966;2023-07-09T18:49:16;100222.31;;;32.73;49.87
18022;BME280;9136;48.822;7.966;2023-07-09T18:52:04;100214.00;;;32.60;49.24
18022;BME280;9136;48.822;7.966;2023-07-09T18:54:54;100219.72;;;32.14;50.99
18022;BME280;9136;48.822;7.966;2023-07-09T18:57:42;100216.03;;;31.85;53.02
18022;BME280;9136;48.822;7.966;2023-07-09T19:00:28;100223.47;;;31.69;54.97
18022;BME280;9136;48.822;7.966;2023-07-09T19:03:17;100232.13;;;31.34;57.25
18022;BME280;9136;48.822;7.966;2023-07-09T19:06:05;100213.09;;;30.97;58.81
18022;BME280;9136;48.822;7.966;2023-07-09T19:08:51;100225.06;;;30.65;61.89
18022;BME280;9136;48.822;7.966;2023-07-09T19:11:38;100216.59;;;30.29;59.30
18022;BME280;9136;48.822;7.966;2023-07-09T19:14:25;100216.53;;;29.98;59.67
18022;BME280;9136;48.822;7.966;2023-07-09T19:17:15;100213.16;;;29.48;65.95
18022;BME280;9136;48.822;7.966;2023-07-09T19:19:51;100234.13;;;29.22;67.25
18022;BME280;9136;48.822;7.966;2023-07-09T19:22:19;100217.88;;;28.81;70.72
18022;BME280;9136;48.822;7.966;2023-07-09T19:24:46;100211.91;;;28.53;72.97
18022;BME280;9136;48.822;7.966;2023-07-09T19:27:14;100224.22;;;28.39;74.72
18022;BME280;9136;48.822;7.966;2023-07-09T19:30:02;100232.75;;;28.27;77.17
18022;BME280;9136;48.822;7.966;2023-07-09T19:32:53;100222.94;;;28.09;82.06
18022;BME280;9136;48.822;7.966;2023-07-09T19:35:42;100231.97;;;27.92;76.34
18022;BME280;9136;48.822;7.966;2023-07-09T19:38:28;100222.47;;;27.80;82.70
18022;BME280;9136;48.822;7.966;2023-07-09T19:41:15;100244.78;;;27.90;75.41
18022;BME280;9136;48.822;7.966;2023-07-09T19:44:02;100246.94;;;27.86;84.69
18022;BME280;9136;48.822;7.966;2023-07-09T19:46:49;100230.00;;;27.50;91.23
18022;BME280;9136;48.822;7.966;2023-07-09T19:49:36;100247.78;;;27.35;90.00
18022;BME280;9136;48.822;7.966;2023-07-09T19:52:22;100243.56;;;27.15;86.84
18022;BME280;9136;48.822;7.966;2023-07-09T19:55:15;100240.53;;;27.00;89.77
18022;BME280;9136;48.822;7.966;2023-07-09T19:58:01;100240.47;;;26.92;94.68
18022;BME280;9136;48.822;7.966;2023-07-09T20:00:48;100248.63;;;26.82;97.25
18022;BME280;9136;48.822;7.966;2023-07-09T20:03:38;100244.72;;;26.59;97.85
18022;BME280;9136;48.822;7.966;2023-07-09T20:06:24;100253.84;;;26.48;100.00
18022;BME280;9136;48.822;7.966;2023-07-09T20:09:15;100259.63;;;26.53;100.00
18022;BME280;9136;48.822;7.966;2023-07-09T20:12:01;100258.09;;;26.50;100.00
18022;BME280;9136;48.822;7.966;2023-07-09T20:14:49;100232.72;;;26.25;100.00
18022;BME280;9136;48.822;7.966;2023-07-09T20:17:36;100243.84;;;26.40;100.00
18022;BME280;9136;48.822;7.966;2023-07-09T20:20:24;100246.47;;;26.50;100.00
18022;BME280;9136;48.822;7.966;2023-07-09T20:23:11;100250.94;;;26.32;100.00
18022;BME280;9136;48.822;7.966;2023-07-09T20:25:59;100244.66;;;26.13;100.00
18022;BME280;9136;48.822;7.966;2023-07-09T20:28:46;100236.81;;;25.92;100.00
18022;BME280;9136;48.822;7.966;2023-07-09T20:31:32;100254.00;;;25.82;100.00
18022;BME280;9136;48.822;7.966;2023-07-09T20:34:20;100247.94;;;25.80;100.00
18022;BME280;9136;48.822;7.966;2023-07-09T20:37:10;100234.63;;;25.68;100.00
18022;BME280;9136;48.822;7.966;2023-07-09T20:39:56;100244.09;;;25.82;100.00
18022;BME280;9136;48.822;7.966;2023-07-09T20:42:43;100249.72;;;25.99;100.00
18022;BME280;9136;48.822;7.966;2023-07-09T20:45:32;100256.22;;;25.96;100.00
18022;BME280;9136;48.822;7.966;2023-07-09T20:48:19;100249.09;;;25.77;100.00
18022;BME280;9136;48.822;7.966;2023-07-09T20:51:05;100275.84;;;25.79;100.00
18022;BME280;9136;48.822;7.966;2023-07-09T20:53:53;100253.75;;;25.65;100.00
18022;BME280;9136;48.822;7.966;2023-07-09T20:56:39;100262.66;;;25.76;100.00
18022;BME280;9136;48.822;7.966;2023-07-09T20:59:27;100279.66;;;26.13;100.00
18022;BME280;9136;48.822;7.966;2023-07-09T21:02:18;100278.16;;;26.38;94.38
18022;BME280;9136;48.822;7.966;2023-07-09T21:05:05;100270.63;;;26.42;93.42
18022;BME280;9136;48.822;7.966;2023-07-09T21:07:53;100258.47;;;26.38;91.98
18022;BME280;9136;48.822;7.966;2023-07-09T21:10:42;100271.19;;;26.45;91.26
18022;BME280;9136;48.822;7.966;2023-07-09T21:13:28;100275.94;;;26.51;87.48
18022;BME280;9136;48.822;7.966;2023-07-09T21:16:18;100256.03;;;26.35;92.68
18022;BME280;9136;48.822;7.966;2023-07-09T21:19:05;100266.00;;;26.24;95.79
18022;BME280;9136;48.822;7.966;2023-07-09T21:21:51;100282.66;;;26.10;100.00
18022;BME280;9136;48.822;7.966;2023-07-09T21:24:24;100276.34;;;25.92;100.00
18022;BME280;9136;48.822;7.966;2023-07-09T21:26:55;100270.63;;;25.67;100.00
18022;BME280;9136;48.822;7.966;2023-07-09T21:29:23;100279.25;;;25.61;100.00
18022;BME280;9136;48.822;7.966;2023-07-09T21:31:54;100276.59;;;25.52;100.00
18022;BME280;9136;48.822;7.966;2023-07-09T21:34:40;100278.84;;;25.47;100.00
18022;BME280;9136;48.822;7.966;2023-07-09T21:37:27;100290.88;;;25.72;99.07
18022;BME280;9136;48.822;7.966;2023-07-09T21:40:32;100294.81;;;25.87;95.76
18022;BME280;9136;48.822;7.966;2023-07-09T21:43:20;100286.84;;;25.85;94.27
18022;BME280;9136;48.822;7.966;2023-07-09T21:46:18;100305.38;;;25.98;95.58
18022;BME280;9136;48.822;7.966;2023-07-09T21:49:13;100303.16;;;25.84;99.66
18022;BME280;9136;48.822;7.966;2023-07-09T21:52:00;100305.31;;;25.71;100.00
18022;BME280;9136;48.822;7.966;2023-07-09T21:54:48;100285.38;;;25.34;100.00
18022;BME280;9136;48.822;7.966;2023-07-09T21:57:36;100305.50;;;25.21;100.00
18022;BME280;9136;48.822;7.966;2023-07-09T22:00:26;100318.50;;;25.16;100.00
18022;BME280;9136;48.822;7.966;2023-07-09T22:03:14;100315.78;;;24.96;100.00
18022;BME280;9136;48.822;7.966;2023-07-09T22:06:01;100316.34;;;24.90;100.00
18022;BME280;9136;48.822;7.966;2023-07-09T22:08:47;100321.28;;;24.85;100.00
18022;BME280;9136;48.822;7.966;2023-07-09T22:11:33;100322.81;;;24.78;100.00
18022;BME280;9136;48.822;7.966;2023-07-09T22:14:22;100314.88;;;24.57;100.00
18022;BME280;9136;48.822;7.966;2023-07-09T22:17:10;100329.25;;;24.46;100.00
18022;BME280;9136;48.822;7.966;2023-07-09T22:19:57;100342.22;;;24.41;100.00
18022;BME280;9136;48.822;7.966;2023-07-09T22:22:44;100344.22;;;24.39;100.00
18022;BME280;9136;48.822;7.966;2023-07-09T22:25:30;100351.91;;;24.53;100.00
18022;BME280;9136;48.822;7.966;2023-07-09T22:28:18;100346.97;;;24.59;100.00
18022;BME280;9136;48.822;7.966;2023-07-09T22:31:04;100374.97;;;24.66;100.00
18022;BME280;9136;48.822;7.966;2023-07-09T22:33:51;100371.41;;;24.25;100.00
18022;BME280;9136;48.822;7.966;2023-07-09T22:36:38;100374.41;;;24.11;100.00
18022;BME280;9136;48.822;7.966;2023-07-09T22:39:24;100357.91;;;23.85;100.00
18022;BME280;9136;48.822;7.966;2023-07-09T22:42:10;100379.53;;;23.93;100.00
18022;BME280;9136;48.822;7.966;2023-07-09T22:44:56;100373.25;;;23.83;100.00
18022;BME280;9136;48.822;7.966;2023-07-09T22:47:42;100356.41;;;23.71;100.00
18022;BME280;9136;48.822;7.966;2023-07-09T22:50:32;100367.19;;;23.81;100.00
18022;BME280;9136;48.822;7.966;2023-07-09T22:53:20;100375.88;;;23.73;100.00
18022;BME280;9136;48.822;7.966;2023-07-09T22:56:07;100376.63;;;23.75;100.00
18022;BME280;9136;48.822;7.966;2023-07-09T22:58:53;100367.41;;;23.68;100.00
18022;BME280;9136;48.822;7.966;2023-07-09T23:01:40;100385.72;;;23.84;100.00
18022;BME280;9136;48.822;7.966;2023-07-09T23:04:27;100384.53;;;23.77;100.00
18022;BME280;9136;48.822;7.966;2023-07-09T23:07:15;100368.75;;;23.83;100.00
18022;BME280;9136;48.822;7.966;2023-07-09T23:10:02;100388.00;;;23.88;100.00
18022;BME280;9136;48.822;7.966;2023-07-09T23:12:49;100395.56;;;23.83;100.00
18022;BME280;9136;48.822;7.966;2023-07-09T23:15:35;100399.78;;;23.76;100.00
18022;BME280;9136;48.822;7.966;2023-07-09T23:18:22;100396.75;;;23.69;100.00
18022;BME280;9136;48.822;7.966;2023-07-09T23:21:08;100393.81;;;23.73;100.00
18022;BME280;9136;48.822;7.966;2023-07-09T23:23:56;100392.72;;;23.75;100.00
18022;BME280;9136;48.822;7.966;2023-07-09T23:26:47;100380.09;;;23.66;100.00
18022;BME280;9136;48.822;7.966;2023-07-09T23:29:34;100395.34;;;23.65;100.00
18022;BME280;9136;48.822;7.966;2023-07-09T23:32:20;100399.72;;;23.66;100.00
18022;BME280;9136;48.822;7.966;2023-07-09T23:35:16;100406.16;;;23.64;100.00
18022;BME280;9136;48.822;7.966;2023-07-09T23:38:02;100403.28;;;23.56;100.00
18022;BME280;9136;48.822;7.966;2023-07-09T23:40:51;100395.66;;;23.40;100.00
18022;BME280;9136;48.822;7.966;2023-07-09T23:43:39;100416.97;;;23.41;100.00
18022;BME280;9136;48.822;7.966;2023-07-09T23:46:29;100401.50;;;23.34;100.00
18022;BME280;9136;48.822;7.966;2023-07-09T23:49:23;100398.03;;;23.22;100.00
18022;BME280;9136;48.822;7.966;2023-07-09T23:52:11;100405.13;;;23.12;100.00
18022;BME280;9136;48.822;7.966;2023-07-09T23:54:57;100411.59;;;23.09;100.00
18022;BME280;9136;48.822;7.966;2023-07-09T23:57:50;100407.56;;;23.04;100.00
